イースター島 の空港の天気 - METARとTAF

マタベリ国際空港 ( SCIP / IPC ) - チリ イースター島
飛行場実況気象(Metar)
観測時間12/15 07:00 EAST (12/15 12:00 UTC)
風向・風速東 8m/s
視程10km以上
天気現象
少しの雲 雲底高度 610m
全天の8割程度の雲 雲底高度 7620m
気温21℃
湿度73%
気圧1025hPa
METARSCIP 151200Z 10015KT 9999 FEW020 BKN250 21/16 Q1025 NOSIG
過去の天気等 Google飛行場航空写真 Wunderground天気予報

過去48時間のMETAR

飛行場予報(TAF)
発表時間: 12/15 05:10 EAST (12/15 10:10 UTC)
予報対象時間: 15日7時 EAST ~ 16日7時 EAST
風向・風速東 5m/s
視程10km以上
全天の4割程度の雲 雲底高度 610m
全天の8割程度の雲 雲底高度 1220m
15日8時 EAST ~ 15日11時 EAST に一時的に
風向・風速南東 8m/s
視程5000m
天気現象しゅう雨
全天の4割程度の雲 雲底高度 460m
全天の8割程度の雲 雲底高度 1070m
15日12時 EAST ~ 15日14時 EAST に徐々に
風向・風速東 8m/s
全天の4割程度の雲 雲底高度 610m
15日15時 EAST ~ 15日18時 EAST に一時的に
風向・風速南東 10m/s
視程5000m
天気現象しゅう雨
全天の4割程度の雲 雲底高度 460m
全天の8割程度の雲 雲底高度 1070m
15日21時 EAST ~ 15日23時 EAST に徐々に
風向・風速東 5m/s
全天の4割程度の雲 雲底高度 610m
全天の8割程度の雲 雲底高度 1220m
16日3時 EAST ~ 16日5時 EAST に一時的に
風向・風速東北東 8m/s
視程5000m
天気現象しゅう雨
全天の4割程度の雲 雲底高度 460m
全天の8割程度の雲 雲底高度 760m
TAF SCIP 151010Z 1512/1612 10010KT 9999 SCT020 BKN040 TX26/1520Z TN20/1610Z
TEMPO 1513/1516 13015KT 5000 SHRA SCT015 BKN035
BECMG 1517/1519 10015KT SCT020
TEMPO 1520/1523 13020KT 5000 SHRA SCT015 BKN035
BECMG 1602/1604 10010KT SCT020 BKN040
TEMPO 1608/1610 07015KT 5000 SHRA SCT015 BKN025